Copeland, Idaho
Current Conditions -  °F | °C
As of 8:55 PM on Thursday 30 Oct 2014 (Local Time) from K65S Reporting Station
Few Clouds Few Clouds  
Wind Chill: 46°   Ceiling: Unl
Heat Index: 46°   Visibility: 10mi
Dew Point: 43°   Wind: 0mph
Humidity: 87%   Direction: NA
Pressure: 29.96"   Gusts: NA
Location:  48.8159°N, 116.65°W
Report Text: K65S 310355Z AUTO 00000KT 10SM FEW120 08/06 A2996 RMK AO2
Loading
Personal Weather Stations






























Interactive Weather Map
Tropical Storm Tracking
New forecast layout! Learn more

10-Day Weather Forecast

Advertisements
Track Severe Weather on mobile